createdAt,value
2023-01-23T00:00:02.253Z,96.23
2023-01-23T00:01:02.226Z,95.92
2023-01-23T00:02:02.224Z,95.92
2023-01-23T00:03:02.213Z,96.03
2023-01-23T00:04:03.161Z,96.13
2023-01-23T00:05:02.251Z,96.55
2023-01-23T00:07:08.475Z,97.03
2023-01-23T00:08:08.464Z,96.97
2023-01-23T00:09:09.562Z,96.66
2023-01-23T00:10:09.553Z,96.50
2023-01-23T00:11:10.347Z,97.17
2023-01-23T00:12:09.534Z,97.70
2023-01-23T00:13:09.548Z,98.11
2023-01-23T00:14:10.331Z,98.01
2023-01-23T00:15:09.523Z,97.91
2023-01-23T00:16:09.528Z,98.11
2023-01-23T00:17:10.497Z,98.11
2023-01-23T00:18:09.491Z,98.22
2023-01-23T00:19:10.432Z,98.32
2023-01-23T00:20:09.477Z,98.37
2023-01-23T00:21:10.329Z,98.11
2023-01-23T00:22:09.451Z,98.43
2023-01-23T00:23:09.445Z,98.43
2023-01-23T00:24:09.435Z,98.53
2023-01-23T00:26:17.005Z,98.43
2023-01-23T00:27:16.998Z,98.85
2023-01-23T00:28:16.985Z,99.05
2023-01-23T00:29:18.724Z,98.74
2023-01-23T00:30:18.451Z,98.79
2023-01-23T00:31:18.149Z,98.89
2023-01-23T00:32:18.049Z,98.99
2023-01-23T00:33:18.038Z,99.10
2023-01-23T00:34:18.141Z,99.05
2023-01-23T00:35:18.017Z,99.31
2023-01-23T00:36:18.009Z,99.52
2023-01-23T00:37:17.999Z,99.20
2023-01-23T00:38:18.054Z,99.62
2023-01-23T00:39:18.010Z,99.41
2023-01-23T00:40:18.312Z,99.31
2023-01-23T00:41:17.979Z,99.31
2023-01-23T00:42:17.988Z,98.99
2023-01-23T00:43:17.953Z,99.26
2023-01-23T00:44:17.966Z,99.57
2023-01-23T00:45:17.943Z,99.41
2023-01-23T00:46:17.968Z,99.41
2023-01-23T00:47:17.936Z,99.20
2023-01-23T00:48:17.913Z,99.20
2023-01-23T00:49:17.945Z,99.10
2023-01-23T00:50:18.251Z,98.89
2023-01-23T00:51:18.789Z,98.95
2023-01-23T00:52:19.754Z,98.53
2023-01-23T00:53:18.728Z,98.43
2023-01-23T00:54:17.875Z,98.68
2023-01-23T00:55:17.866Z,98.68
2023-01-23T00:56:18.671Z,98.53
2023-01-23T00:57:17.942Z,98.32
2023-01-23T00:58:18.244Z,98.53
2023-01-23T00:59:18.646Z,98.53
2023-01-23T01:00:19.114Z,98.37
2023-01-23T01:01:17.856Z,97.91
2023-01-23T01:02:17.809Z,98.43
2023-01-23T01:03:17.827Z,98.32
2023-01-23T01:04:19.670Z,98.53
2023-01-23T01:05:17.784Z,98.53
2023-01-23T01:06:18.847Z,98.32
2023-01-23T01:07:17.765Z,98.53
2023-01-23T01:08:17.753Z,97.80
2023-01-23T01:09:17.745Z,97.70
2023-01-23T01:10:17.941Z,97.80
2023-01-23T01:11:17.731Z,98.01
2023-01-23T01:12:17.718Z,97.59
2023-01-23T01:13:17.724Z,97.91
2023-01-23T01:14:17.714Z,97.70
2023-01-23T01:15:17.695Z,97.65
2023-01-23T01:16:18.732Z,98.07
2023-01-23T01:17:17.684Z,97.49
2023-01-23T01:18:19.164Z,97.55
2023-01-23T01:19:17.678Z,97.38
2023-01-23T01:20:18.565Z,97.28
2023-01-23T01:21:17.649Z,97.07
2023-01-23T01:22:17.743Z,96.97
2023-01-23T01:23:18.226Z,96.13
2023-01-23T01:24:18.150Z,96.66
2023-01-23T01:25:17.659Z,96.66
2023-01-23T01:26:18.255Z,96.97
2023-01-23T01:27:21.775Z,96.66
2023-01-23T01:28:18.154Z,96.97
2023-01-23T01:29:28.280Z,96.97
2023-01-23T01:30:17.829Z,96.34
2023-01-23T01:31:19.243Z,96.13
2023-01-23T01:32:17.630Z,96.44
2023-01-23T01:33:19.875Z,96.34
2023-01-23T01:34:19.233Z,96.23
2023-01-23T01:35:19.175Z,96.19
2023-01-23T01:36:17.529Z,95.50
2023-01-23T01:37:19.665Z,95.36
2023-01-23T01:38:18.257Z,95.15
2023-01-23T01:39:17.505Z,95.29
2023-01-23T01:40:17.738Z,94.35
2023-01-23T01:41:19.241Z,95.04
2023-01-23T01:42:17.493Z,94.63
2023-01-23T01:43:17.483Z,94.63
2023-01-23T01:44:17.479Z,95.25
2023-01-23T01:45:17.459Z,94.94
2023-01-23T01:46:17.478Z,95.36
2023-01-23T01:47:17.445Z,94.63
2023-01-23T01:48:17.445Z,95.25
2023-01-23T01:49:19.175Z,94.52
2023-01-23T01:51:24.363Z,94.52
2023-01-23T01:52:24.302Z,93.79
2023-01-23T01:53:24.372Z,95.46
2023-01-23T01:54:24.258Z,94.63
2023-01-23T01:55:24.255Z,94.78
2023-01-23T01:56:25.333Z,95.19
2023-01-23T01:57:25.340Z,94.73
2023-01-23T01:58:25.332Z,95.25
2023-01-23T01:59:25.319Z,94.63
2023-01-23T02:00:25.348Z,94.94
2023-01-23T02:01:25.294Z,94.52
2023-01-23T02:02:25.280Z,93.90
2023-01-23T02:03:25.275Z,94.00
2023-01-23T02:04:25.277Z,94.00
2023-01-23T02:05:26.213Z,93.27
2023-01-23T02:06:25.261Z,93.27
2023-01-23T02:07:25.251Z,93.16
2023-01-23T02:08:25.253Z,93.06
2023-01-23T02:09:25.339Z,93.59
2023-01-23T02:10:25.252Z,93.37
2023-01-23T02:11:26.149Z,93.59
2023-01-23T02:12:25.712Z,93.27
2023-01-23T02:13:25.213Z,93.37
2023-01-23T02:14:25.193Z,93.16
2023-01-23T02:15:25.197Z,93.06
2023-01-23T02:16:25.194Z,93.37
2023-01-23T02:17:25.175Z,92.96
2023-01-23T02:18:25.168Z,93.06
2023-01-23T02:19:25.164Z,93.27
2023-01-23T02:20:25.143Z,93.06
2023-01-23T02:21:25.614Z,92.75
2023-01-23T02:22:26.147Z,92.22
2023-01-23T02:23:25.127Z,92.75
2023-01-23T02:24:25.116Z,92.81
2023-01-23T02:25:25.208Z,92.71
2023-01-23T02:26:26.774Z,92.65
2023-01-23T02:27:25.093Z,92.50
2023-01-23T02:28:25.091Z,92.65
2023-01-23T02:29:25.132Z,92.22
2023-01-23T02:30:25.061Z,92.54
2023-01-23T02:31:25.130Z,93.16
2023-01-23T02:32:25.053Z,92.44
2023-01-23T02:33:25.050Z,92.44
2023-01-23T02:34:25.716Z,92.54
2023-01-23T02:35:25.030Z,92.33
2023-01-23T02:36:25.030Z,92.44
2023-01-23T02:37:25.011Z,92.85
2023-01-23T02:38:25.006Z,92.65
2023-01-23T02:39:25.026Z,92.12
2023-01-23T02:40:24.990Z,92.54
2023-01-23T02:41:26.829Z,92.40
2023-01-23T02:42:24.998Z,92.71
2023-01-23T02:43:24.966Z,92.29
2023-01-23T02:44:24.968Z,92.44
2023-01-23T02:45:24.963Z,92.71
2023-01-23T02:46:24.942Z,92.96
2023-01-23T02:47:24.957Z,92.54
2023-01-23T02:48:24.925Z,93.16
2023-01-23T02:49:24.915Z,93.27
2023-01-23T02:50:24.908Z,93.69
2023-01-23T02:51:25.963Z,93.79
2023-01-23T02:52:24.895Z,93.59
2023-01-23T02:53:24.899Z,93.37
2023-01-23T02:54:24.879Z,93.69
2023-01-23T02:55:25.717Z,93.69
2023-01-23T02:56:24.873Z,94.00
2023-01-23T02:57:24.959Z,94.10
2023-01-23T02:58:25.643Z,94.00
2023-01-23T02:59:24.846Z,93.48
2023-01-23T03:00:24.835Z,93.79
2023-01-23T03:01:24.824Z,92.71
2023-01-23T03:02:24.905Z,93.12
2023-01-23T03:03:24.824Z,93.23
2023-01-23T03:04:24.804Z,92.91
2023-01-23T03:05:24.815Z,92.08
2023-01-23T03:06:24.791Z,92.33
2023-01-23T03:07:24.792Z,92.08
2023-01-23T03:08:25.719Z,91.81
2023-01-23T03:09:24.765Z,92.08
2023-01-23T03:10:24.824Z,92.29
2023-01-23T03:12:31.634Z,92.12
2023-01-23T03:13:31.615Z,91.91
2023-01-23T03:14:31.616Z,91.56
2023-01-23T03:15:32.714Z,91.97
2023-01-23T03:16:32.775Z,91.50
2023-01-23T03:17:32.668Z,92.02
2023-01-23T03:18:35.965Z,91.56
2023-01-23T03:19:33.650Z,92.12
2023-01-23T03:20:32.685Z,91.87
2023-01-23T03:21:32.638Z,91.60
2023-01-23T03:22:32.630Z,91.87
2023-01-23T03:23:32.633Z,91.71
2023-01-23T03:24:32.611Z,91.29
2023-01-23T03:25:32.609Z,91.71
2023-01-23T03:26:32.618Z,91.71
2023-01-23T03:27:32.588Z,91.60
2023-01-23T03:28:32.686Z,91.39
2023-01-23T03:29:32.581Z,91.35
2023-01-23T03:30:32.589Z,91.18
2023-01-23T03:31:32.645Z,91.60
2023-01-23T03:32:32.568Z,91.56
2023-01-23T03:33:32.552Z,91.50
2023-01-23T03:34:32.547Z,91.91
2023-01-23T03:35:32.544Z,91.56
2023-01-23T03:36:32.525Z,91.29
2023-01-23T03:37:32.514Z,91.66
2023-01-23T03:38:32.508Z,91.77
2023-01-23T03:39:33.506Z,91.60
2023-01-23T03:40:32.492Z,91.56
2023-01-23T03:41:32.485Z,91.66
2023-01-23T03:42:32.473Z,91.46
2023-01-23T03:43:33.464Z,91.46
2023-01-23T03:44:32.553Z,91.14
2023-01-23T03:45:32.485Z,91.14
2023-01-23T03:46:32.449Z,91.25
2023-01-23T03:47:32.435Z,91.14
2023-01-23T03:48:32.437Z,91.04
2023-01-23T03:49:32.980Z,91.35
2023-01-23T03:50:32.429Z,91.18
2023-01-23T03:51:32.402Z,91.25
2023-01-23T03:52:32.402Z,90.93
2023-01-23T03:53:33.377Z,90.83
2023-01-23T03:54:32.375Z,91.04
2023-01-23T03:55:33.063Z,90.62
2023-01-23T03:56:32.984Z,90.83
2023-01-23T03:57:32.970Z,90.83
2023-01-23T03:58:32.355Z,90.41
2023-01-23T03:59:32.335Z,90.62
2023-01-23T04:00:32.440Z,90.62
2023-01-23T04:01:32.327Z,90.62
2023-01-23T04:02:32.353Z,90.41
2023-01-23T04:03:32.319Z,90.62
2023-01-23T04:04:32.303Z,90.83
2023-01-23T04:05:32.295Z,90.72
2023-01-23T04:06:32.292Z,90.62
2023-01-23T04:07:32.277Z,90.00
2023-01-23T04:08:32.275Z,90.52
2023-01-23T04:09:32.272Z,90.10
2023-01-23T04:10:32.268Z,90.52
2023-01-23T04:11:32.244Z,90.00
2023-01-23T04:12:32.957Z,90.62
2023-01-23T04:13:32.960Z,90.52
2023-01-23T04:14:32.225Z,90.41
2023-01-23T04:15:32.203Z,90.62
2023-01-23T04:16:34.104Z,90.00
2023-01-23T04:17:32.201Z,90.00
2023-01-23T04:18:32.197Z,90.20
2023-01-23T04:19:32.185Z,90.66
2023-01-23T04:20:32.185Z,90.41
2023-01-23T04:21:32.170Z,90.52
2023-01-23T04:22:32.160Z,90.45
2023-01-23T04:23:32.165Z,90.52
2023-01-23T04:24:32.148Z,90.77
2023-01-23T04:25:32.136Z,90.62
2023-01-23T04:26:32.148Z,90.83
2023-01-23T04:27:32.123Z,90.77
2023-01-23T04:28:32.973Z,90.56
2023-01-23T04:29:32.117Z,90.77
2023-01-23T04:30:32.260Z,90.66
2023-01-23T04:31:32.196Z,91.46
2023-01-23T04:32:32.173Z,91.08
2023-01-23T04:33:33.114Z,90.35
2023-01-23T04:34:32.071Z,90.87
2023-01-23T04:35:32.058Z,90.77
2023-01-23T04:36:32.052Z,91.18
2023-01-23T04:37:32.061Z,90.87
2023-01-23T04:38:32.035Z,91.18
2023-01-23T04:39:32.024Z,91.91
2023-01-23T04:40:32.038Z,91.60
2023-01-23T04:41:32.966Z,90.97
2023-01-23T04:42:32.033Z,91.60
2023-01-23T04:43:32.000Z,91.39
2023-01-23T04:44:32.008Z,91.18
2023-01-23T04:45:31.983Z,91.60
2023-01-23T04:46:31.969Z,91.81
2023-01-23T04:47:31.974Z,91.50
2023-01-23T04:48:32.058Z,92.02
2023-01-23T04:49:31.957Z,92.02
2023-01-23T04:50:31.955Z,91.29
2023-01-23T04:51:31.939Z,92.16
2023-01-23T04:52:31.925Z,92.22
2023-01-23T04:53:31.939Z,92.54
2023-01-23T04:54:31.924Z,92.65
2023-01-23T04:55:32.918Z,92.47
2023-01-23T04:56:31.918Z,91.81
2023-01-23T04:57:31.926Z,91.71
2023-01-23T04:58:31.896Z,92.02
2023-01-23T04:59:31.972Z,92.12
2023-01-23T05:00:31.879Z,92.16
2023-01-23T05:01:31.869Z,92.22
2023-01-23T05:02:31.872Z,91.91
2023-01-23T05:03:31.877Z,92.22
2023-01-23T05:04:31.978Z,92.37
2023-01-23T05:05:31.836Z,92.44
2023-01-23T05:06:31.823Z,92.33
2023-01-23T05:07:31.816Z,92.37
2023-01-23T05:08:31.809Z,92.54
2023-01-23T05:09:31.823Z,92.69
2023-01-23T05:10:31.796Z,92.54
2023-01-23T05:11:31.797Z,92.44
2023-01-23T05:12:31.774Z,92.33
2023-01-23T05:13:31.799Z,92.69
2023-01-23T05:14:32.494Z,92.54
2023-01-23T05:15:31.802Z,92.54
2023-01-23T05:16:31.746Z,92.54
2023-01-23T05:17:31.761Z,92.54
2023-01-23T05:18:31.731Z,92.69
2023-01-23T05:19:31.730Z,92.75
2023-01-23T05:20:32.661Z,93.16
2023-01-23T05:21:31.711Z,92.44
2023-01-23T05:22:31.704Z,92.58
2023-01-23T05:23:33.571Z,92.79
2023-01-23T05:24:31.691Z,92.54
2023-01-23T05:25:31.670Z,92.79
2023-01-23T05:26:31.669Z,92.79
2023-01-23T05:27:33.543Z,92.58
2023-01-23T05:28:31.666Z,92.79
2023-01-23T05:29:31.636Z,92.75
2023-01-23T05:30:32.574Z,93.10
2023-01-23T05:31:31.729Z,92.85
2023-01-23T05:32:31.627Z,93.00
2023-01-23T05:33:31.628Z,92.65
2023-01-23T05:34:31.605Z,93.41
2023-01-23T05:35:31.611Z,92.37
2023-01-23T05:36:31.691Z,93.00
2023-01-23T05:37:31.618Z,93.10
2023-01-23T05:38:31.599Z,93.06
2023-01-23T05:39:31.594Z,92.96
2023-01-23T05:40:31.569Z,92.96
2023-01-23T05:41:32.540Z,93.16
2023-01-23T05:42:32.487Z,92.96
2023-01-23T05:43:31.556Z,93.00
2023-01-23T05:44:31.541Z,93.10
2023-01-23T05:45:32.469Z,92.47
2023-01-23T05:46:31.597Z,93.00
2023-01-23T05:47:31.503Z,93.10
2023-01-23T05:48:31.508Z,93.06
2023-01-23T05:49:31.500Z,92.69
2023-01-23T05:50:34.502Z,93.10
2023-01-23T05:51:31.480Z,93.16
2023-01-23T05:52:31.588Z,93.21
2023-01-23T05:53:31.457Z,92.54
2023-01-23T05:54:31.449Z,92.47
2023-01-23T05:55:31.442Z,93.10
2023-01-23T05:56:31.442Z,92.96
2023-01-23T05:57:31.447Z,92.54
2023-01-23T05:58:31.424Z,92.85
2023-01-23T05:59:31.468Z,93.10
2023-01-23T06:00:31.417Z,93.06
2023-01-23T06:01:31.398Z,93.21
2023-01-23T06:02:32.390Z,93.00
2023-01-23T06:03:31.457Z,92.79
2023-01-23T06:04:31.440Z,92.44
2023-01-23T06:05:31.379Z,93.31
2023-01-23T06:06:31.367Z,93.16
2023-01-23T06:07:31.362Z,93.06
2023-01-23T06:08:31.435Z,93.16
2023-01-23T06:09:32.976Z,93.21
2023-01-23T06:10:31.976Z,92.90
2023-01-23T06:11:32.068Z,93.06
2023-01-23T06:12:31.326Z,92.58
2023-01-23T06:13:33.985Z,93.06
2023-01-23T06:14:31.314Z,92.75
2023-01-23T06:15:31.357Z,92.54
2023-01-23T06:16:31.298Z,92.54
2023-01-23T06:17:31.324Z,92.44
2023-01-23T06:18:31.259Z,92.33
2023-01-23T06:19:31.268Z,92.75
2023-01-23T06:20:31.251Z,92.85
2023-01-23T06:21:32.973Z,92.75
2023-01-23T06:22:31.986Z,93.06
2023-01-23T06:23:32.241Z,92.44
2023-01-23T06:24:31.318Z,92.65
2023-01-23T06:25:31.236Z,92.54
2023-01-23T06:26:31.202Z,92.85
2023-01-23T06:27:31.185Z,92.12
2023-01-23T06:28:31.187Z,92.54
2023-01-23T06:29:31.173Z,92.54
2023-01-23T06:30:33.047Z,92.65
2023-01-23T06:31:32.347Z,92.22
2023-01-23T06:32:31.181Z,92.58
2023-01-23T06:33:31.152Z,92.47
2023-01-23T06:34:31.128Z,93.21
2023-01-23T06:35:31.132Z,92.96
2023-01-23T06:36:31.126Z,92.37
2023-01-23T06:37:32.123Z,92.75
2023-01-23T06:38:31.103Z,93.21
2023-01-23T06:39:31.117Z,93.41
2023-01-23T06:40:31.200Z,93.10
2023-01-23T06:41:31.090Z,93.16
2023-01-23T06:42:31.083Z,92.69
2023-01-23T06:43:31.073Z,92.90
2023-01-23T06:44:31.079Z,92.69
2023-01-23T06:45:31.063Z,93.21
2023-01-23T06:46:31.073Z,93.10
2023-01-23T06:47:31.044Z,93.41
2023-01-23T06:48:31.983Z,93.21
2023-01-23T06:49:31.032Z,93.41
2023-01-23T06:50:31.036Z,92.85
2023-01-23T06:51:31.040Z,92.79
2023-01-23T06:52:31.009Z,93.41
2023-01-23T06:53:30.993Z,93.31
2023-01-23T06:54:30.997Z,93.10
2023-01-23T06:55:31.004Z,93.16
2023-01-23T06:56:33.666Z,93.10
2023-01-23T06:57:30.975Z,93.00
2023-01-23T06:58:30.975Z,92.79
2023-01-23T06:59:30.960Z,92.58
2023-01-23T07:00:30.987Z,93.52
2023-01-23T07:01:30.960Z,93.31
2023-01-23T07:02:30.978Z,93.41
2023-01-23T07:03:30.968Z,93.27
2023-01-23T07:04:31.554Z,92.90
2023-01-23T07:05:32.572Z,93.10
2023-01-23T07:06:32.571Z,93.00
2023-01-23T07:07:30.887Z,92.75
2023-01-23T07:08:31.569Z,93.10
2023-01-23T07:09:31.477Z,93.00
2023-01-23T07:10:30.858Z,92.69
2023-01-23T07:11:30.851Z,92.33
2023-01-23T07:12:32.601Z,92.22
2023-01-23T07:13:31.574Z,92.44
2023-01-23T07:14:31.515Z,92.58
2023-01-23T07:15:31.481Z,92.44
2023-01-23T07:16:30.852Z,92.79
2023-01-23T07:18:37.502Z,93.16
2023-01-23T07:19:37.498Z,92.54
2023-01-23T07:20:37.490Z,92.54
2023-01-23T07:21:37.509Z,92.75
2023-01-23T07:22:37.474Z,92.58
2023-01-23T07:23:37.473Z,92.22
2023-01-23T07:24:37.457Z,92.90
2023-01-23T07:25:37.450Z,92.47
2023-01-23T07:26:37.450Z,92.12
2023-01-23T07:27:37.541Z,91.71
2023-01-23T07:28:37.434Z,91.85
2023-01-23T07:29:37.958Z,91.60
2023-01-23T07:30:38.556Z,91.71
2023-01-23T07:31:38.628Z,91.91
2023-01-23T07:32:38.497Z,91.81
2023-01-23T07:33:39.029Z,91.81
2023-01-23T07:34:38.486Z,91.71
2023-01-23T07:35:38.483Z,91.60
2023-01-23T07:36:38.462Z,91.91
2023-01-23T07:37:38.458Z,92.12
2023-01-23T07:38:38.456Z,92.22
2023-01-23T07:39:38.444Z,92.12
2023-01-23T07:40:38.439Z,92.22
2023-01-23T07:41:39.743Z,91.91
2023-01-23T07:42:38.425Z,92.12
2023-01-23T07:43:38.538Z,91.81
2023-01-23T07:44:38.409Z,92.02
2023-01-23T07:45:38.426Z,91.60
2023-01-23T07:46:39.046Z,91.91
2023-01-23T07:47:38.383Z,91.81
2023-01-23T07:48:38.384Z,92.22
2023-01-23T07:49:38.376Z,92.33
2023-01-23T07:50:38.374Z,92.33
2023-01-23T07:51:38.346Z,91.39
2023-01-23T07:52:38.352Z,92.12
2023-01-23T07:53:39.332Z,92.12
2023-01-23T07:54:38.331Z,92.12
2023-01-23T07:55:38.331Z,92.18
2023-01-23T07:56:38.359Z,91.97
2023-01-23T07:57:38.351Z,91.97
2023-01-23T07:58:40.040Z,91.29
2023-01-23T07:59:38.426Z,92.18
2023-01-23T08:00:41.131Z,91.81
2023-01-23T08:02:45.133Z,91.87
2023-01-23T08:03:45.183Z,91.91
2023-01-23T08:04:46.129Z,91.87
2023-01-23T08:05:45.140Z,91.66
2023-01-23T08:06:45.101Z,92.08
2023-01-23T08:07:46.195Z,91.77
2023-01-23T08:08:46.202Z,91.56
2023-01-23T08:09:46.179Z,91.97
2023-01-23T08:10:46.215Z,91.56
2023-01-23T08:11:49.081Z,91.56
2023-01-23T08:12:46.149Z,91.66
2023-01-23T08:13:46.143Z,91.35
2023-01-23T08:14:46.233Z,91.14
2023-01-23T08:15:46.122Z,91.04
2023-01-23T08:16:46.132Z,90.83
2023-01-23T08:17:46.149Z,91.25
2023-01-23T08:18:46.101Z,91.04
2023-01-23T08:19:46.095Z,91.56
2023-01-23T08:20:47.090Z,91.46
2023-01-23T08:21:48.003Z,91.14
2023-01-23T08:22:46.072Z,91.46
2023-01-23T08:23:46.124Z,91.77
2023-01-23T08:25:53.135Z,91.35
2023-01-23T08:26:53.127Z,91.87
2023-01-23T08:27:54.271Z,91.56
2023-01-23T08:28:53.111Z,91.56
2023-01-23T08:29:53.207Z,91.66
2023-01-23T08:30:53.159Z,91.10
2023-01-23T08:31:53.102Z,90.89
2023-01-23T08:32:53.074Z,90.68
2023-01-23T08:33:53.065Z,90.68
2023-01-23T08:34:53.052Z,91.41
2023-01-23T08:35:53.099Z,90.47
2023-01-23T08:36:53.079Z,90.26
2023-01-23T08:37:53.041Z,91.10
2023-01-23T08:38:53.026Z,91.10
2023-01-23T08:39:53.014Z,90.58
2023-01-23T08:40:54.780Z,90.68
2023-01-23T08:41:53.025Z,90.58
2023-01-23T08:42:52.997Z,90.72
2023-01-23T08:43:53.297Z,90.47
2023-01-23T08:44:52.979Z,90.68
2023-01-23T08:45:53.139Z,90.68
2023-01-23T08:46:54.067Z,90.58
2023-01-23T08:47:54.068Z,90.58
2023-01-23T08:48:55.809Z,90.12
2023-01-23T08:49:55.780Z,90.47
2023-01-23T08:50:54.058Z,90.75
2023-01-23T08:51:54.022Z,90.06
2023-01-23T08:52:54.008Z,90.44
2023-01-23T08:53:54.004Z,89.91
2023-01-23T08:54:54.006Z,89.60
2023-01-23T08:55:53.987Z,89.50
2023-01-23T08:56:54.018Z,89.39
2023-01-23T08:57:53.978Z,89.50
2023-01-23T08:58:53.978Z,89.81
2023-01-23T08:59:54.845Z,89.70
2023-01-23T09:00:53.994Z,89.70
2023-01-23T09:01:54.111Z,89.50
2023-01-23T09:02:53.931Z,89.50
2023-01-23T09:03:53.921Z,89.50
2023-01-23T09:04:54.374Z,90.01
2023-01-23T09:05:53.931Z,89.81
2023-01-23T09:06:53.894Z,89.39
2023-01-23T09:07:55.855Z,89.29
2023-01-23T09:08:53.879Z,89.45
2023-01-23T09:09:54.823Z,89.29
2023-01-23T09:10:53.890Z,89.60
2023-01-23T09:11:56.936Z,89.50
2023-01-23T09:12:53.863Z,89.54
2023-01-23T09:13:54.264Z,89.60
2023-01-23T09:14:54.885Z,89.50
2023-01-23T09:15:53.828Z,89.60
2023-01-23T09:16:53.923Z,89.39
2023-01-23T09:17:53.929Z,89.39
2023-01-23T09:18:53.825Z,89.60
2023-01-23T09:19:53.794Z,89.29
2023-01-23T09:20:53.785Z,89.29
2023-01-23T09:21:53.790Z,89.39
2023-01-23T09:22:53.785Z,89.50
2023-01-23T09:23:53.756Z,89.39
2023-01-23T09:24:53.748Z,89.39
2023-01-23T09:25:53.760Z,89.50
2023-01-23T09:26:53.763Z,89.29
2023-01-23T09:27:53.768Z,88.98
2023-01-23T21:25:15.227Z,87.33
2023-01-23T21:26:15.214Z,87.43
2023-01-23T21:27:15.194Z,87.89
2023-01-23T21:28:15.191Z,87.79
2023-01-23T21:29:16.277Z,87.68
2023-01-23T21:30:16.272Z,87.68
2023-01-23T21:31:16.383Z,87.58
2023-01-23T21:32:16.254Z,87.89
2023-01-23T21:33:17.134Z,87.75
2023-01-23T21:34:16.245Z,87.48
2023-01-23T21:35:16.247Z,87.02
2023-01-23T21:36:16.227Z,86.22
2023-01-23T21:37:16.207Z,86.81
2023-01-23T21:38:16.641Z,86.91
2023-01-23T21:39:16.207Z,87.23
2023-01-23T21:40:16.648Z,87.65
2023-01-23T21:41:16.282Z,87.54
2023-01-23T21:42:16.165Z,87.68
2023-01-23T21:43:16.173Z,86.96
2023-01-23T21:44:16.154Z,86.54
2023-01-23T21:45:16.160Z,86.08
2023-01-23T21:46:16.163Z,85.88
2023-01-23T21:47:16.135Z,86.19
2023-01-23T21:48:16.128Z,86.40
2023-01-23T21:49:16.121Z,86.85
2023-01-23T21:50:16.117Z,86.60
2023-01-23T21:51:16.112Z,85.91
2023-01-23T21:52:16.089Z,86.60
2023-01-23T21:53:16.113Z,86.85
2023-01-23T21:54:16.085Z,86.91
2023-01-23T21:55:16.080Z,85.88
2023-01-23T21:56:16.068Z,86.43
2023-01-23T21:57:16.177Z,86.43
2023-01-23T21:58:16.051Z,87.02
2023-01-23T21:59:16.032Z,87.06
2023-01-23T22:00:16.027Z,87.27
2023-01-23T22:01:16.092Z,87.23
2023-01-23T22:02:16.147Z,87.02
2023-01-23T22:03:16.006Z,87.27
2023-01-23T22:04:16.004Z,87.12
2023-01-23T22:05:15.996Z,87.16
2023-01-23T22:06:15.981Z,87.96
2023-01-23T22:07:15.991Z,87.79
2023-01-23T22:08:15.965Z,87.48
2023-01-23T22:09:15.972Z,87.48
2023-01-23T22:10:15.956Z,87.68
2023-01-23T22:11:15.957Z,87.68
2023-01-23T22:12:15.942Z,87.58
2023-01-23T22:13:16.037Z,87.65
2023-01-23T22:14:15.926Z,87.68
2023-01-23T22:15:15.957Z,87.37
2023-01-23T22:16:15.974Z,87.68
2023-01-23T22:17:15.893Z,87.37
2023-01-23T22:18:15.900Z,87.89
2023-01-23T22:19:15.887Z,88.10
2023-01-23T22:20:15.893Z,88.42
2023-01-23T22:21:15.865Z,88.14
2023-01-23T22:22:15.857Z,88.42
2023-01-23T22:23:15.855Z,88.56
2023-01-23T22:24:15.954Z,88.62
2023-01-23T22:25:16.646Z,88.52
2023-01-23T22:26:15.831Z,88.52
2023-01-23T22:27:15.817Z,88.45
2023-01-23T22:28:15.805Z,88.62
2023-01-23T22:29:15.905Z,88.98
2023-01-23T22:30:15.805Z,89.08
2023-01-23T22:31:15.902Z,88.73
2023-01-23T22:32:15.933Z,88.73
2023-01-23T22:33:15.802Z,88.56
2023-01-23T22:34:15.775Z,88.62
2023-01-23T22:35:15.756Z,88.42
2023-01-23T22:36:16.234Z,88.52
2023-01-23T22:37:20.430Z,88.10
2023-01-23T22:38:15.970Z,88.31
2023-01-23T22:39:17.622Z,88.20
2023-01-23T22:40:15.724Z,88.42
2023-01-23T22:41:15.719Z,88.20
2023-01-23T22:42:15.701Z,88.20
2023-01-23T22:43:15.704Z,88.10
2023-01-23T22:44:15.679Z,88.24
2023-01-23T22:45:15.773Z,88.42
2023-01-23T22:46:15.661Z,88.20
2023-01-23T22:47:15.696Z,88.62
2023-01-23T22:48:15.652Z,88.56
2023-01-23T22:49:15.652Z,88.45
2023-01-23T22:50:17.011Z,88.66
2023-01-23T22:51:16.661Z,88.76
2023-01-23T22:52:15.615Z,89.70
2023-01-23T22:53:15.623Z,89.39
2023-01-23T22:54:15.610Z,89.50
2023-01-23T22:55:15.593Z,89.56
2023-01-23T22:56:15.590Z,89.66
2023-01-23T22:57:15.595Z,89.39
2023-01-23T22:58:15.565Z,89.39
2023-01-23T22:59:16.166Z,89.35
2023-01-23T23:00:15.571Z,89.81
2023-01-23T23:01:15.716Z,89.35
2023-01-23T23:02:15.545Z,89.66
2023-01-23T23:03:15.581Z,89.50
2023-01-23T23:04:15.573Z,89.70
2023-01-23T23:05:15.519Z,89.60
2023-01-23T23:06:15.515Z,90.01
2023-01-23T23:07:15.513Z,89.81
2023-01-23T23:08:15.522Z,89.70
